Terminal Aerodrome Forecast
Issued by NWS

Home | Current Version | Previous Version | Text Only | Print | Product List | Glossary On
Versions: 1 2 3 4 5 6 7 8 9 10 11 12 13 14 15 16 17 18 19 20
000
FTUS42 TJSJ 221100
TAFKPK
TAF
TKPK 221123Z 2212/2312 07013KT P6SM FEW018 BKN050
      TEMPO 2212/2216 3SM SHRA BKN015
     FM221600 06012KT P6SM VCSH FEW016 BKN060
     FM222000 07013KT P6SM VCSH FEW016
      AMD NOT SKED TIL 231100=

USA.gov is the U.S. government's official web portal to all federal, state and local government web resources and services.